AirNav   Everest Fuels
 
 1443 users online  

34NC Carolinas Medical Center Heliport
Charlotte, North Carolina, USA

GOING TO CHARLOTTE?


FAA INFORMATION EFFECTIVE 25 MARCH 2021

Location

FAA Identifier: 34NC
Lat/Long: 35-12-14.6800N 080-50-19.1000W
35-12.244667N 080-50.318333W
35.2040778,-80.8386389
(estimated)
Elevation: 750 ft. / 229 m (estimated)
Variation: 06W (1995)
From city: 2 miles S of CHARLOTTE, NC
Time zone: UTC -4 (UTC -5 during Standard Time)
Zip code: 28203

Heliport Operations

Heliport use: Private use, MEDICAL USE.
Activation date: 03/1998
Control tower: no
ARTCC: ATLANTA CENTER
FSS: RALEIGH FLIGHT SERVICE STATION
Attendance: CONTINUOUS
Wind indicator: lighted
Segmented circle: no
Lights: SS-SR
Beacon: white-green-yellow (heliport)
Operates sunset to sunrise.

Heliport Communications

WX ASOS at CLT (5 nm W): 121.15 (704-359-0235)
WX AWOS-3 at JQF (13 nm NE): 133.675 (704-785-2145)
WX ASOS at AKH (15 nm W): 135.725 (704-868-9034)
WX ASOS at EQY (15 nm SE): 135.775 (704-283-5185)
WX ASOS at UZA (17 nm SW): 120.775 (803-981-9388)

Nearby radio navigation aids

VOR radial/distance  VOR name  Freq  Var
CLTr087/5.6CHARLOTTE VOR/DME115.0005W

 
NDB name  Hdg/Dist  Freq  Var  ID
STONIA093/15.726006WGHJ --. .... .---
LANCASTER009/28.940007WLKR .-.. -.- .-.
CHESTER041/30.822006WDCM -.. -.-. --
FIRST RIVER100/37.441706WSLP ... .-.. .--.

Heliport Services

Runway Information

Helipad H3

Dimensions: 60 x 60 ft. / 18 x 18 m
Surface: concrete
ROOF-TOP.
Runway edge lights: PERI
Latitude: 35-12.261167N
Longitude: 080-50.306167W
Elevation: 750.0 ft.
Traffic pattern: leftleft

Helipad H1

Dimensions: 40 x 40 ft. / 12 x 12 m
Surface: mats
ROOF-TOP.
Runway edge lights: PERI
Latitude: 35-12.227000N
Longitude: 080-50.341333W
Elevation: 750.0 ft.
Traffic pattern: leftleft

Helipad H2

Dimensions: 40 x 40 ft. / 12 x 12 m
Surface: mats
ROOF-TOP.
Runway edge lights: PERI
Latitude: 35-12.240667N
Longitude: 080-50.312167W
Elevation: 750.0 ft.
Traffic pattern: leftleft

Heliport Ownership and Management from official FAA records

Ownership: Privately-owned
Owner: CAROLINAS MEDICAL CENTER
1000 BLYTHE BOULEVARD
CHARLOTTE, NC 28232-5812
Phone 704-355-5669
Manager: MARTIN J. FISHER
5315 MORRIS FIELD DR
CHARLOTTE, NC 28208-5812
Phone (704) 512-7941

Heliport Operational Statistics

Aircraft based on the field: 4
Helicopters: 4
    

Additional Remarks

FOR CD CTC CHARLOTTE APCH AT 704-359-0241.
OWNER DESIRES ARPT BE CHARTED.

Instrument Procedures

There are no published instrument procedures at 34NC.

Some nearby airports with instrument procedures:

KCLT - Charlotte/Douglas International Airport (5 nm W)
KJQF - Concord-Padgett Regional Airport (13 nm NE)
KAKH - Gastonia Municipal Airport (15 nm W)
KEQY - Charlotte-Monroe Executive Airport (15 nm SE)
KUZA - Rock Hill (York County) Airport-Bryant Field (17 nm SW)
 
Loc | Ops | Rwys | IFR | FBO | Links
Com | Nav | Svcs | Stats | Notes
Area around 34NC (Carolinas Medical Center Heliport)
 
Road maps at: MapQuest Bing Google
 
Aerial photo
No photo
 
Sectional chart

 
Airport distance calculator
Flying to Carolinas Medical Center Heliport? Find the distance to fly.

From to 34NC

Sunrise and sunset
Times for 12-Apr-2021
 Local
(UTC-4)
 Zulu
(UTC)
Morning civil twilight06:3010:30
Sunrise06:5610:56
Sunset19:5223:52
Evening civil twilight20:1800:18

Current date and time
Zulu (UTC)  12-Apr-2021 21:14:27
Local (UTC-4)  12-Apr-2021 17:14:27
 
METAR
KCLT 
6nm W 
122052Z 30012G20KT 10SM FEW080 28/04 A2972 RMK AO2 SLP057 T02830039 56011
KJQF 
12nm NE 
122050Z 24007G15KT 10SM CLR 27/04 A2974
KAKH 
15nm W 
122054Z AUTO VRB05G14KT 10SM CLR 27/04 A2972 RMK AO2 SLP058 T02720044 56011
KEQY 
16nm SE 
122053Z AUTO 27007G23KT 240V300 10SM CLR 27/06 A2971 RMK AO2 SLP063 T02720056 56014
KUZA 
17nm SW 
122054Z AUTO 31006KT 10SM CLR 28/07 A2973 RMK AO2 SLP059 T02780067 55011
TAF
KCLT 
6nm W 
122005Z 1220/1324 26006KT P6SM FEW080 FM122100 29008KT P6SM SKC FM122300 30006KT P6SM SKC FM130600 33004KT P6SM FEW250
NOTAMs
Click for the latest NOTAMs
NOTAMs are issued by the DoD/FAA and will open in a separate window not controlled by AirNav.

 

 
 

Would you like to see your business listed on this page?

 If your business provides an interesting product or service to pilots, flight crews, aircraft, or users of the Carolinas Medical Center Heliport, you should consider listing it here.  To start the listing process, click on the button below
 
Add a business
 

Other Pages about Carolinas Medical Center Heliport

Update a link
 
Copyright © AirNav, LLC. All rights reserved. Privacy Policy  Contact